Mega Smeralda — ICIU — position and weather

sailwx.info

Track history (hours):
 
Tides and Currents Weather Stations Pressure Air Temp Water Temp Dewpoint Dewpoint Depression Visibility Wind Speed Wind Dir Waves Ship Positions

Mega Smeralda

Last reported at 2015-Jan-26 19:29 UTC. Time now 2015-Jan-26 20:32 UTC.
Position N 43°07' E 005°56'.

Length 171 m; draft 6.4 m.

Type: Passenger vessel. MMSI: 247228600.

Date/timePositionNaut miles runAvg speedWind from/ knotsBaromVisibWave heightAir tempDewpointWater temp
2015-Jan-26 19:29N 43°07' E 005°56'0 0.0
2015-Jan-26 18:32N 43°07' E 005°56'0 0.0
2015-Jan-26 17:32N 43°07' E 005°56'0 0.0
2015-Jan-26 16:32N 43°07' E 005°56'0 0.0
2015-Jan-26 15:29N 43°07' E 005°56'0 0.0
2015-Jan-26 14:29N 43°07' E 005°56'0 0.0
2015-Jan-26 13:32N 43°07' E 005°56'0 0.0
2015-Jan-26 12:32N 43°07' E 005°56'0 0.0
2015-Jan-26 11:32N 43°07' E 005°56'0 0.0
2015-Jan-26 10:32N 43°07' E 005°56'0 0.0
2015-Jan-26 09:32N 43°07' E 005°56'0 0.0
2015-Jan-26 08:32N 43°07' E 005°56'0 0.0
2015-Jan-26 07:32N 43°07' E 005°56'0 0.0
2015-Jan-26 06:32N 43°07' E 005°56'17 8.4
2015-Jan-26 04:33N 42°55' E 006°12'1312.7
2015-Jan-26 03:33N 42°48' E 006°27'1312.5
2015-Jan-26 02:33N 42°43' E 006°42'1212.2
2015-Jan-26 01:33N 42°38' E 006°57'50 1.7
2015-Jan-24 20:24N 43°04' E 005°59'4 4.3
2015-Jan-24 19:33N 43°07' E 005°56'0 0.0
2015-Jan-24 18:33N 43°07' E 005°56'0 0.0
2015-Jan-24 17:33N 43°07' E 005°56'0 0.0
2015-Jan-24 16:33N 43°07' E 005°56'0 0.0
2015-Jan-24 15:33N 43°07' E 005°56'0 0.0
2015-Jan-24 14:33N 43°07' E 005°56'0 0.0
2015-Jan-24 13:32N 43°07' E 005°56'0 0.0
2015-Jan-24 12:33N 43°07' E 005°56'0 0.0
2015-Jan-24 11:32N 43°07' E 005°56'0 0.0
2015-Jan-24 10:32N 43°07' E 005°56'0 0.0
2015-Jan-24 09:33N 43°07' E 005°56'0 0.0
2015-Jan-24 08:32N 43°07' E 005°56'0 0.0
2015-Jan-24 07:33N 43°07' E 005°56'0 0.0
2015-Jan-24 06:33N 43°07' E 005°56'17 8.3
2015-Jan-24 04:32N 42°55' E 006°12'1413.8
2015-Jan-24 03:33N 42°50' E 006°29'1313.5
2015-Jan-24 02:33N 42°45' E 006°46'1313.2
2015-Jan-24 01:33N 42°41' E 007°03'1514.4
2015-Jan-24 00:33N 42°34' E 007°21'66 2.4
2015-Jan-22 20:26N 43°03' E 005°60'5 5.1
2015-Jan-22 19:33N 43°07' E 005°56'0 0.0
2015-Jan-22 18:33N 43°07' E 005°56'0 0.0
2015-Jan-22 17:33N 43°07' E 005°56'0 0.0
2015-Jan-22 16:32N 43°07' E 005°56'0 0.0
2015-Jan-22 15:32N 43°07' E 005°56'0 0.0
2015-Jan-22 14:32N 43°07' E 005°56'0 0.0
2015-Jan-22 13:32N 43°07' E 005°56'0 0.0
2015-Jan-22 12:32N 43°07' E 005°56'0 0.0
2015-Jan-22 11:32N 43°07' E 005°56'0 0.0
2015-Jan-22 10:32N 43°07' E 005°56'0 0.0
2015-Jan-22 09:29N 43°07' E 005°56'0 0.0
2015-Jan-22 08:32N 43°07' E 005°56'0 0.0
2015-Jan-22 07:32N 43°07' E 005°56'0 0.0
2015-Jan-22 06:32N 43°07' E 005°56'18 8.8
2015-Jan-22 04:33N 42°54' E 006°11'1313.5
2015-Jan-22 03:34N 42°47' E 006°27'1613.9
2015-Jan-22 02:24N 42°39' E 006°46'41 1.4
2015-Jan-20 20:29N 43°03' E 006°00'5 5.5
2015-Jan-20 19:31N 43°07' E 005°56'0 0.0
2015-Jan-20 18:31N 43°07' E 005°56'0 0.0
2015-Jan-20 17:31N 43°07' E 005°56'0 0.0
2015-Jan-20 16:31N 43°07' E 005°56'0 0.0
2015-Jan-20 15:31N 43°07' E 005°56'0 0.0
2015-Jan-20 14:31N 43°07' E 005°56'0 0.0
2015-Jan-20 13:31N 43°07' E 005°56'0 0.0
2015-Jan-20 12:31N 43°07' E 005°56'0 0.0
2015-Jan-20 11:31N 43°07' E 005°56'0 0.0
2015-Jan-20 10:31N 43°07' E 005°56'0 0.0
2015-Jan-20 09:31N 43°07' E 005°56'0 0.0
2015-Jan-20 08:31N 43°07' E 005°56'0 0.0
2015-Jan-20 07:28N 43°07' E 005°56'0 0.0
2015-Jan-20 06:28N 43°07' E 005°56'2110.7
2015-Jan-20 04:32N 42°52' E 006°16'1616.4
2015-Jan-20 03:33N 42°44' E 006°34'1615.8
2015-Jan-20 02:33N 42°35' E 006°53'47 1.6
2015-Jan-18 20:32N 43°02' E 006°00'5 5.5
2015-Jan-18 19:32N 43°07' E 005°56'0 0.0
2015-Jan-18 18:32N 43°07' E 005°56'0 0.0
2015-Jan-18 17:29N 43°07' E 005°56'0 0.0
2015-Jan-18 16:32N 43°07' E 005°56'0 0.0
2015-Jan-18 15:32N 43°07' E 005°56'0 0.0
2015-Jan-18 14:32N 43°07' E 005°56'0 0.0
2015-Jan-18 13:29N 43°07' E 005°56'0 0.0
2015-Jan-18 12:32N 43°07' E 005°56'0 0.0
2015-Jan-18 11:32N 43°07' E 005°56'0 0.0
2015-Jan-18 10:32N 43°07' E 005°56'0 0.0
2015-Jan-18 09:32N 43°07' E 005°56'0 0.0
2015-Jan-18 08:32N 43°07' E 005°56'0 0.0
2015-Jan-18 07:32N 43°07' E 005°56'19 9.7
2015-Jan-18 05:33N 42°53' E 006°14'1515.3
2015-Jan-18 04:34N 42°45' E 006°32'1514.8
2015-Jan-18 03:33N 42°38' E 006°49'44 1.4
2015-Jan-16 20:32N 43°03' E 006°00'5 5.2
2015-Jan-16 19:33N 43°07' E 005°56'  
Track history (hours):
 
Tides and Currents Weather Stations Pressure Air Temp Water Temp Dewpoint Dewpoint Depression Visibility Wind Speed Wind Dir Waves Ship Positions

Mega Smeralda

Last reported at 2015-Jan-26 19:29 UTC. Time now 2015-Jan-26 20:32 UTC.
Position N 43°07' E 005°56'.

Length 171 m; draft 6.4 m.

Type: Passenger vessel. MMSI: 247228600.

Date/timePositionNaut miles runAvg speedWind from/ knotsBaromVisibWave heightAir tempDewpointWater temp
2015-Jan-26 19:29N 43°07' E 005°56'0 0.0
2015-Jan-26 18:32N 43°07' E 005°56'0 0.0
2015-Jan-26 17:32N 43°07' E 005°56'0 0.0
2015-Jan-26 16:32N 43°07' E 005°56'0 0.0
2015-Jan-26 15:29N 43°07' E 005°56'0 0.0
2015-Jan-26 14:29N 43°07' E 005°56'0 0.0
2015-Jan-26 13:32N 43°07' E 005°56'0 0.0
2015-Jan-26 12:32N 43°07' E 005°56'0 0.0
2015-Jan-26 11:32N 43°07' E 005°56'0 0.0
2015-Jan-26 10:32N 43°07' E 005°56'0 0.0
2015-Jan-26 09:32N 43°07' E 005°56'0 0.0
2015-Jan-26 08:32N 43°07' E 005°56'0 0.0
2015-Jan-26 07:32N 43°07' E 005°56'0 0.0
2015-Jan-26 06:32N 43°07' E 005°56'17 8.4
2015-Jan-26 04:33N 42°55' E 006°12'1312.7
2015-Jan-26 03:33N 42°48' E 006°27'1312.5
2015-Jan-26 02:33N 42°43' E 006°42'1212.2
2015-Jan-26 01:33N 42°38' E 006°57'50 1.7
2015-Jan-24 20:24N 43°04' E 005°59'4 4.3
2015-Jan-24 19:33N 43°07' E 005°56'0 0.0
2015-Jan-24 18:33N 43°07' E 005°56'0 0.0
2015-Jan-24 17:33N 43°07' E 005°56'0 0.0
2015-Jan-24 16:33N 43°07' E 005°56'0 0.0
2015-Jan-24 15:33N 43°07' E 005°56'0 0.0
2015-Jan-24 14:33N 43°07' E 005°56'0 0.0
2015-Jan-24 13:32N 43°07' E 005°56'0 0.0
2015-Jan-24 12:33N 43°07' E 005°56'0 0.0
2015-Jan-24 11:32N 43°07' E 005°56'0 0.0
2015-Jan-24 10:32N 43°07' E 005°56'0 0.0
2015-Jan-24 09:33N 43°07' E 005°56'0 0.0
2015-Jan-24 08:32N 43°07' E 005°56'0 0.0
2015-Jan-24 07:33N 43°07' E 005°56'0 0.0
2015-Jan-24 06:33N 43°07' E 005°56'17 8.3
2015-Jan-24 04:32N 42°55' E 006°12'1413.8
2015-Jan-24 03:33N 42°50' E 006°29'1313.5
2015-Jan-24 02:33N 42°45' E 006°46'1313.2
2015-Jan-24 01:33N 42°41' E 007°03'1514.4
2015-Jan-24 00:33N 42°34' E 007°21'66 2.4
2015-Jan-22 20:26N 43°03' E 005°60'5 5.1
2015-Jan-22 19:33N 43°07' E 005°56'0 0.0
2015-Jan-22 18:33N 43°07' E 005°56'0 0.0
2015-Jan-22 17:33N 43°07' E 005°56'0 0.0
2015-Jan-22 16:32N 43°07' E 005°56'0 0.0
2015-Jan-22 15:32N 43°07' E 005°56'0 0.0
2015-Jan-22 14:32N 43°07' E 005°56'0 0.0
2015-Jan-22 13:32N 43°07' E 005°56'0 0.0
2015-Jan-22 12:32N 43°07' E 005°56'0 0.0
2015-Jan-22 11:32N 43°07' E 005°56'0 0.0
2015-Jan-22 10:32N 43°07' E 005°56'0 0.0
2015-Jan-22 09:29N 43°07' E 005°56'0 0.0
2015-Jan-22 08:32N 43°07' E 005°56'0 0.0
2015-Jan-22 07:32N 43°07' E 005°56'0 0.0
2015-Jan-22 06:32N 43°07' E 005°56'18 8.8
2015-Jan-22 04:33N 42°54' E 006°11'1313.5
2015-Jan-22 03:34N 42°47' E 006°27'1613.9
2015-Jan-22 02:24N 42°39' E 006°46'41 1.4
2015-Jan-20 20:29N 43°03' E 006°00'5 5.5
2015-Jan-20 19:31N 43°07' E 005°56'0 0.0
2015-Jan-20 18:31N 43°07' E 005°56'0 0.0
2015-Jan-20 17:31N 43°07' E 005°56'0 0.0
2015-Jan-20 16:31N 43°07' E 005°56'0 0.0
2015-Jan-20 15:31N 43°07' E 005°56'0 0.0
2015-Jan-20 14:31N 43°07' E 005°56'0 0.0
2015-Jan-20 13:31N 43°07' E 005°56'0 0.0
2015-Jan-20 12:31N 43°07' E 005°56'0 0.0
2015-Jan-20 11:31N 43°07' E 005°56'0 0.0
2015-Jan-20 10:31N 43°07' E 005°56'0 0.0
2015-Jan-20 09:31N 43°07' E 005°56'0 0.0
2015-Jan-20 08:31N 43°07' E 005°56'0 0.0
2015-Jan-20 07:28N 43°07' E 005°56'0 0.0
2015-Jan-20 06:28N 43°07' E 005°56'2110.7
2015-Jan-20 04:32N 42°52' E 006°16'1616.4
2015-Jan-20 03:33N 42°44' E 006°34'1615.8
2015-Jan-20 02:33N 42°35' E 006°53'47 1.6
2015-Jan-18 20:32N 43°02' E 006°00'5 5.5
2015-Jan-18 19:32N 43°07' E 005°56'0 0.0
2015-Jan-18 18:32N 43°07' E 005°56'0 0.0
2015-Jan-18 17:29N 43°07' E 005°56'0 0.0
2015-Jan-18 16:32N 43°07' E 005°56'0 0.0
2015-Jan-18 15:32N 43°07' E 005°56'0 0.0
2015-Jan-18 14:32N 43°07' E 005°56'0 0.0
2015-Jan-18 13:29N 43°07' E 005°56'0 0.0
2015-Jan-18 12:32N 43°07' E 005°56'0 0.0
2015-Jan-18 11:32N 43°07' E 005°56'0 0.0
2015-Jan-18 10:32N 43°07' E 005°56'0 0.0
2015-Jan-18 09:32N 43°07' E 005°56'0 0.0
2015-Jan-18 08:32N 43°07' E 005°56'0 0.0
2015-Jan-18 07:32N 43°07' E 005°56'19 9.7
2015-Jan-18 05:33N 42°53' E 006°14'1515.3
2015-Jan-18 04:34N 42°45' E 006°32'1514.8
2015-Jan-18 03:33N 42°38' E 006°49'44 1.4
2015-Jan-16 20:32N 43°03' E 006°00'5 5.2
2015-Jan-16 19:33N 43°07' E 005°56'  

Dump ship's entire track history